Home PIREPS Pireps

Flight BEL977

  • Submitted By: Serge Morabito
  • Departure Airport: Jersey (EGJJ)
  • Arrival Airport: Rotterdam (EHRD)
  • Aircraft: A320-214 (OO-SNB)
  • Flight Time: 01.29
  • Date Submitted: 16/09/2016
  • Route: CAN N160 EVX UN873 FERDI N873 HELEN
  • Status: Accepted
Flight Details
Gross Revenue:
(138 load / € 0.00 per unit
€ 0.00
Fuel Cost:
(3483 fuel used @ 0 / unit)
€ 0.00

Additional Log Information:

View Log

Aircraft Used in flight is A320 neo (v2.6r2) Brussels Airlines
19:36 Brakes are On
19:41 Brakes are Released
19:42 Brakes are On
19:45 Brakes are Released
19:49 Brakes are On
19:51 Brakes are Released
19:52 You Took off @ 161 Knots and Flaps at Position 3
Departure Weather
EGJJ 161720Z 32020KT 9999 SCT027 16/11 Q1018 NOSIGrn
19:52 Landing Gear Up @ 177 Knots and 680 Feet
19:53 Below 10000 feet you are not allowed to go over 250 knots
19:54 You exceeded maximum bank angle
20:03 Above FL100 you need to switch of the landing lights
20:56 Landing Gear Down @ 194 Knots and 2160 Feet
21:00 You Landed @ 134 Knots and with -250 Vertical Speed
Arrival Weather
EHRD 161825Z AUTO 16007KT 9999 FEW042 19/13 Q1010 NOSIGrn
21:00 Brakes are On
21:00 Brakes are Released
21:01 Brakes are On
21:01 Brakes are Released
21:01 Brakes are On
21:02 Brakes are Released
21:05 Brakes are On
21:05 Brussels Bel-Track1.0.1.2

Route Map

Corporate About Us Our Team Vacancies Information Fleet Route Network Rules and Regulations Operations Flight Schedules Event Center Tours Partners IVAO Vatsim Acars dev FSCB

fb Users Online Belgium John Smits,
2 Pilot(s) and 129 Guest(s) Online
CMS by phpVMS - Design by Crazycreatives.com - Copyright © 2019 - Brussels Airlines Virtual